createdAt,value
2022-11-29T00:01:34.116Z,3.39
2022-11-29T00:04:01.226Z,3.38
2022-11-29T00:06:30.980Z,3.39
2022-11-29T00:08:59.937Z,3.50
2022-11-29T00:11:48.813Z,3.76
2022-11-29T00:14:18.296Z,3.99
2022-11-29T00:16:45.564Z,4.18
2022-11-29T00:19:13.331Z,4.35
2022-11-29T00:21:39.872Z,4.36
2022-11-29T00:24:06.840Z,4.28
2022-11-29T00:26:33.571Z,4.13
2022-11-29T00:29:00.118Z,3.96
2022-11-29T00:31:32.161Z,3.82
2022-11-29T00:34:01.126Z,3.73
2022-11-29T00:36:28.148Z,3.64
2022-11-29T00:38:54.706Z,3.57
2022-11-29T00:41:21.463Z,3.51
2022-11-29T00:43:48.415Z,3.46
2022-11-29T00:46:15.454Z,3.41
2022-11-29T00:48:42.118Z,3.39
2022-11-29T00:51:08.916Z,3.31
2022-11-29T00:53:36.715Z,3.32
2022-11-29T00:56:04.378Z,3.32
2022-11-29T00:58:31.153Z,3.37
2022-11-29T01:00:57.985Z,3.45
2022-11-29T01:03:24.832Z,3.53
2022-11-29T01:05:51.899Z,3.63
2022-11-29T01:08:19.308Z,3.70
2022-11-29T01:10:45.942Z,3.73
2022-11-29T01:13:14.151Z,3.65
2022-11-29T01:15:41.799Z,3.44
2022-11-29T01:18:08.360Z,3.25
2022-11-29T01:20:34.911Z,3.19
2022-11-29T01:23:01.509Z,3.30
2022-11-29T01:25:28.055Z,3.45
2022-11-29T01:27:54.540Z,3.54
2022-11-29T01:30:21.482Z,3.69
2022-11-29T01:32:48.086Z,3.77
2022-11-29T01:35:14.560Z,3.81
2022-11-29T01:37:41.145Z,3.78
2022-11-29T01:40:08.210Z,3.68
2022-11-29T01:42:34.698Z,3.57
2022-11-29T01:45:08.112Z,3.47
2022-11-29T01:47:41.471Z,3.34
2022-11-29T01:50:08.572Z,3.27
2022-11-29T01:52:35.098Z,3.35
2022-11-29T01:55:05.658Z,3.49
2022-11-29T01:57:35.323Z,3.71
2022-11-29T02:00:10.175Z,3.89
2022-11-29T02:02:52.331Z,4.02
2022-11-29T02:05:20.562Z,4.06
2022-11-29T02:07:51.412Z,4.10
2022-11-29T02:10:20.469Z,4.04
2022-11-29T02:12:56.121Z,3.92
2022-11-29T02:15:34.747Z,3.83
2022-11-29T02:18:07.336Z,3.74
2022-11-29T02:21:07.901Z,3.63
2022-11-29T02:23:53.085Z,3.52
2022-11-29T02:26:58.026Z,3.41
2022-11-29T02:29:46.680Z,3.25
2022-11-29T02:32:54.207Z,3.13
2022-11-29T02:35:39.566Z,3.10
2022-11-29T02:38:45.531Z,2.96
2022-11-29T02:42:17.027Z,2.80
2022-11-29T02:45:05.624Z,2.67
2022-11-29T02:48:21.412Z,2.63
2022-11-29T02:50:56.829Z,2.65
2022-11-29T02:53:35.514Z,2.67
2022-11-29T02:56:21.056Z,2.66
2022-11-29T02:59:16.703Z,2.69
2022-11-29T03:01:59.023Z,2.73
2022-11-29T03:04:33.296Z,2.69
2022-11-29T03:07:37.394Z,2.59
2022-11-29T03:10:17.319Z,2.57
2022-11-29T03:12:50.210Z,2.65
2022-11-29T03:15:31.213Z,2.81
2022-11-29T03:18:17.298Z,2.90
2022-11-29T03:20:55.850Z,2.90
2022-11-29T03:23:28.148Z,2.90
2022-11-29T03:26:07.748Z,2.86
2022-11-29T03:29:07.379Z,2.81
2022-11-29T03:31:53.010Z,2.75
2022-11-29T03:34:32.864Z,2.61
2022-11-29T03:37:11.179Z,2.51
2022-11-29T03:39:57.918Z,2.54
2022-11-29T03:42:32.848Z,2.56
2022-11-29T03:45:14.537Z,2.59
2022-11-29T03:47:52.412Z,2.55
2022-11-29T03:50:38.974Z,2.52
2022-11-29T03:53:08.873Z,2.56
2022-11-29T03:55:56.629Z,2.52
2022-11-29T03:58:47.805Z,2.46
2022-11-29T04:01:35.484Z,2.43
2022-11-29T04:04:17.048Z,2.41
2022-11-29T04:06:46.322Z,2.41
2022-11-29T04:09:18.794Z,2.44
2022-11-29T04:11:59.057Z,2.41
2022-11-29T04:14:56.371Z,2.37
2022-11-29T04:17:25.613Z,2.29
2022-11-29T04:20:37.831Z,2.21
2022-11-29T04:23:30.468Z,2.19
2022-11-29T04:26:34.648Z,2.15
2022-11-29T04:29:10.587Z,2.12
2022-11-29T04:32:11.231Z,2.14
2022-11-29T04:34:49.940Z,2.13
2022-11-29T04:37:38.139Z,2.11
2022-11-29T04:40:53.293Z,2.13
2022-11-29T04:43:25.852Z,2.14
2022-11-29T04:46:01.248Z,2.14
2022-11-29T04:48:55.640Z,2.15
2022-11-29T04:51:36.994Z,2.14
2022-11-29T04:54:16.361Z,2.12
2022-11-29T04:56:50.788Z,2.06
2022-11-29T04:59:32.636Z,2.05
2022-11-29T05:02:23.839Z,2.04
2022-11-29T05:05:24.881Z,2.07
2022-11-29T05:08:25.350Z,2.17
2022-11-29T05:11:29.145Z,2.23
2022-11-29T05:14:17.666Z,2.22
2022-11-29T05:17:08.694Z,2.20
2022-11-29T05:20:01.491Z,2.18
2022-11-29T05:22:34.279Z,2.21
2022-11-29T05:25:23.053Z,2.26
2022-11-29T05:28:10.591Z,2.30
2022-11-29T05:31:08.081Z,2.35
2022-11-29T05:34:05.402Z,2.43
2022-11-29T05:36:48.497Z,2.48
2022-11-29T05:39:17.749Z,2.48
2022-11-29T05:42:02.197Z,2.49
2022-11-29T05:44:28.649Z,2.56
2022-11-29T05:46:56.851Z,2.48
2022-11-29T05:49:29.094Z,2.44
2022-11-29T05:52:03.658Z,2.36
2022-11-29T05:54:33.684Z,2.35
2022-11-29T05:57:25.107Z,2.35
2022-11-29T05:59:53.596Z,2.43
2022-11-29T06:02:26.439Z,2.44
2022-11-29T06:05:09.624Z,2.36
2022-11-29T06:07:58.658Z,2.26
2022-11-29T06:10:29.869Z,2.18
2022-11-29T06:13:38.356Z,2.14
2022-11-29T06:16:39.929Z,2.22
2022-11-29T06:19:18.306Z,2.42
2022-11-29T06:22:09.503Z,2.77
2022-11-29T06:24:50.568Z,3.10
2022-11-29T06:27:42.912Z,3.49
2022-11-29T06:30:20.804Z,3.63
2022-11-29T06:33:14.032Z,3.70
2022-11-29T06:35:46.529Z,3.63
2022-11-29T06:38:27.175Z,3.55
2022-11-29T06:41:00.137Z,3.43
2022-11-29T06:43:28.775Z,3.37
2022-11-29T06:46:11.301Z,3.30
2022-11-29T06:49:01.956Z,3.27
2022-11-29T06:51:34.986Z,3.29
2022-11-29T06:54:24.081Z,3.40
2022-11-29T06:57:26.537Z,3.48
2022-11-29T07:00:08.365Z,3.51
2022-11-29T07:02:44.528Z,3.61
2022-11-29T07:05:23.469Z,3.63
2022-11-29T07:07:54.124Z,3.65
2022-11-29T07:10:21.392Z,3.64
2022-11-29T07:12:49.675Z,3.64
2022-11-29T07:15:21.816Z,3.58
2022-11-29T07:18:24.573Z,3.56
2022-11-29T07:21:25.484Z,3.55
2022-11-29T07:24:13.786Z,3.55
2022-11-29T07:27:02.416Z,3.51
2022-11-29T07:29:34.753Z,3.47
2022-11-29T07:32:15.276Z,3.42
2022-11-29T07:35:06.683Z,3.45
2022-11-29T07:37:53.427Z,3.44
2022-11-29T07:40:34.427Z,3.42
2022-11-29T07:43:21.738Z,3.45
2022-11-29T07:45:48.664Z,3.44
2022-11-29T07:48:16.594Z,3.45
2022-11-29T07:50:43.909Z,3.48
2022-11-29T07:53:17.844Z,3.48
2022-11-29T07:55:45.050Z,3.47
2022-11-29T07:58:15.942Z,3.44
2022-11-29T08:00:43.358Z,3.40
2022-11-29T08:03:11.030Z,3.36
2022-11-29T08:05:38.582Z,3.33
2022-11-29T08:08:05.701Z,3.31
2022-11-29T08:10:32.493Z,3.29
2022-11-29T08:12:59.026Z,3.28
2022-11-29T08:15:25.972Z,3.26
2022-11-29T08:17:53.336Z,3.29
2022-11-29T08:20:20.031Z,3.34
2022-11-29T08:22:54.683Z,3.45
2022-11-29T08:25:21.297Z,3.58
2022-11-29T08:27:47.812Z,3.78
2022-11-29T08:30:14.494Z,3.90
2022-11-29T08:32:41.028Z,4.03
2022-11-29T08:35:07.854Z,4.14
2022-11-29T08:37:34.556Z,4.22
2022-11-29T08:40:01.128Z,4.33
2022-11-29T08:42:27.640Z,4.40
2022-11-29T08:44:54.207Z,4.43
2022-11-29T08:47:38.871Z,4.46
2022-11-29T08:50:12.195Z,4.53
2022-11-29T08:53:00.153Z,4.64
2022-11-29T08:55:30.687Z,4.71
2022-11-29T08:58:06.130Z,4.81
2022-11-29T09:00:34.207Z,4.86
2022-11-29T09:03:22.183Z,4.89
2022-11-29T09:05:48.859Z,4.85
2022-11-29T09:08:15.714Z,4.92
2022-11-29T09:10:42.828Z,4.97
2022-11-29T09:13:10.543Z,4.96
2022-11-29T09:15:38.290Z,4.94
2022-11-29T09:18:05.858Z,4.99
2022-11-29T09:20:33.831Z,4.99
2022-11-29T09:23:01.359Z,4.97
2022-11-29T09:25:28.842Z,5.07
2022-11-29T09:27:58.269Z,5.09
2022-11-29T09:30:25.062Z,5.23
2022-11-29T09:32:51.629Z,5.32
2022-11-29T09:35:18.306Z,5.40
2022-11-29T09:37:44.799Z,5.41
2022-11-29T09:40:21.887Z,5.39
2022-11-29T09:42:58.245Z,5.33
2022-11-29T09:45:31.692Z,5.27
2022-11-29T09:48:01.175Z,5.26
2022-11-29T09:50:44.851Z,5.33
2022-11-29T09:53:36.084Z,5.54
2022-11-29T09:56:27.289Z,5.72
2022-11-29T09:59:00.351Z,5.88
2022-11-29T10:01:31.889Z,6.04
2022-11-29T10:04:02.983Z,6.18
2022-11-29T10:06:36.821Z,6.30
2022-11-29T10:09:16.047Z,6.48
2022-11-29T10:12:17.302Z,6.66
2022-11-29T10:14:49.476Z,6.82
2022-11-29T10:17:39.411Z,6.87
2022-11-29T10:20:42.410Z,6.90
2022-11-29T10:23:36.755Z,7.02
2022-11-29T10:26:08.062Z,7.16
2022-11-29T10:28:36.857Z,7.22
2022-11-29T10:31:32.511Z,7.30
2022-11-29T10:34:01.683Z,7.38
2022-11-29T10:36:44.648Z,7.56
2022-11-29T10:39:19.770Z,7.77
2022-11-29T10:41:49.777Z,7.80
2022-11-29T10:44:16.295Z,7.90
2022-11-29T10:46:43.025Z,8.01
2022-11-29T10:49:17.275Z,8.11
2022-11-29T10:51:44.083Z,8.05
2022-11-29T10:54:32.614Z,7.99
2022-11-29T10:57:00.974Z,7.95
2022-11-29T10:59:29.678Z,7.88
2022-11-29T11:01:57.835Z,7.91
2022-11-29T11:04:27.027Z,7.95
2022-11-29T11:06:57.180Z,7.98
2022-11-29T11:09:35.715Z,8.07
2022-11-29T11:12:17.014Z,8.11
2022-11-29T11:14:45.228Z,8.15
2022-11-29T11:17:30.207Z,8.17
2022-11-29T11:20:05.861Z,8.23
2022-11-29T11:22:33.841Z,8.36
2022-11-29T11:25:06.297Z,8.50
2022-11-29T11:27:41.566Z,8.60
2022-11-29T11:30:22.329Z,8.66
2022-11-29T11:33:13.459Z,8.67
2022-11-29T11:35:40.045Z,8.61
2022-11-29T11:38:16.534Z,8.59
2022-11-29T11:40:43.641Z,8.60
2022-11-29T11:43:20.639Z,8.65
2022-11-29T11:45:54.622Z,8.67
2022-11-29T11:48:22.057Z,8.72
2022-11-29T11:50:54.004Z,8.73
2022-11-29T11:53:36.789Z,8.75
2022-11-29T11:56:07.766Z,8.75
2022-11-29T11:58:43.324Z,8.81
2022-11-29T12:01:12.789Z,8.90
2022-11-29T12:03:49.917Z,8.94
2022-11-29T12:06:36.067Z,8.97
2022-11-29T12:09:11.441Z,9.02
2022-11-29T12:11:50.209Z,8.99
2022-11-29T12:14:52.077Z,8.92
2022-11-29T12:17:46.414Z,8.82
2022-11-29T12:20:17.792Z,8.73
2022-11-29T12:22:53.319Z,8.70
2022-11-29T12:25:26.990Z,8.71
2022-11-29T12:27:53.597Z,8.68
2022-11-29T12:30:20.380Z,8.66
2022-11-29T12:33:03.908Z,8.59
2022-11-29T12:35:35.061Z,8.61
2022-11-29T12:38:34.990Z,8.54
2022-11-29T12:41:34.713Z,8.51
2022-11-29T12:44:33.272Z,8.48
2022-11-29T12:50:16.809Z,8.30
2022-11-29T12:53:06.245Z,8.29
2022-11-29T12:56:20.465Z,8.19
2022-11-29T12:59:08.425Z,8.14
2022-11-29T13:02:15.129Z,8.14
2022-11-29T13:04:59.373Z,8.13
2022-11-29T13:07:57.339Z,8.11
2022-11-29T13:10:48.869Z,8.12
2022-11-29T13:13:42.406Z,8.07
2022-11-29T13:16:25.089Z,8.08
2022-11-29T13:19:08.523Z,8.12
2022-11-29T13:21:53.141Z,8.07
2022-11-29T13:24:42.883Z,8.04
2022-11-29T13:27:15.919Z,8.03
2022-11-29T13:29:42.619Z,7.97
2022-11-29T13:32:30.347Z,7.89
2022-11-29T13:35:03.211Z,7.77
2022-11-29T13:37:50.621Z,7.70
2022-11-29T13:40:37.654Z,7.65
2022-11-29T13:43:22.688Z,7.61
2022-11-29T13:46:11.023Z,7.57
2022-11-29T13:48:49.433Z,7.55
2022-11-29T13:51:33.350Z,7.50
2022-11-29T13:54:03.536Z,7.49
2022-11-29T13:56:36.523Z,7.49
2022-11-29T13:59:08.398Z,7.46
2022-11-29T14:01:46.746Z,7.50
2022-11-29T14:04:28.618Z,7.46
2022-11-29T14:07:15.377Z,7.43
2022-11-29T14:09:59.169Z,7.40
2022-11-29T14:12:48.129Z,7.39
2022-11-29T14:15:32.691Z,7.29
2022-11-29T14:18:07.312Z,7.27
2022-11-29T14:20:39.702Z,7.28
2022-11-29T14:23:07.470Z,7.25
2022-11-29T14:25:51.108Z,7.18
2022-11-29T14:28:18.363Z,7.18
2022-11-29T14:30:44.898Z,7.18
2022-11-29T14:33:33.188Z,7.15
2022-11-29T14:36:14.972Z,7.16
2022-11-29T14:38:53.666Z,7.18
2022-11-29T14:41:37.019Z,7.17
2022-11-29T14:44:21.834Z,7.14
2022-11-29T14:46:59.338Z,7.11
2022-11-29T14:49:27.610Z,7.05
2022-11-29T14:52:15.666Z,7.06
2022-11-29T14:55:17.502Z,7.09
2022-11-29T14:57:49.879Z,7.08
2022-11-29T15:00:24.335Z,7.08
2022-11-29T15:03:09.204Z,7.08
2022-11-29T15:05:40.037Z,7.03
2022-11-29T15:08:06.524Z,7.04
2022-11-29T15:10:37.444Z,7.02
2022-11-29T15:13:04.647Z,7.02
2022-11-29T15:16:16.267Z,7.02
2022-11-29T15:19:04.036Z,7.01
2022-11-29T15:21:39.466Z,7.02
2022-11-29T15:24:15.177Z,6.99
2022-11-29T15:26:59.762Z,6.99
2022-11-29T15:29:27.953Z,6.97
2022-11-29T15:32:06.052Z,6.96
2022-11-29T15:34:38.117Z,6.92
2022-11-29T15:37:04.887Z,6.92
2022-11-29T15:39:34.834Z,6.92
2022-11-29T15:42:10.130Z,6.92
2022-11-29T15:44:36.765Z,6.90
2022-11-29T15:47:23.048Z,6.91
2022-11-29T15:49:50.928Z,6.86
2022-11-29T15:52:36.437Z,6.86
2022-11-29T15:55:10.314Z,6.83
2022-11-29T15:57:42.893Z,6.83
2022-11-29T16:00:17.457Z,6.80
2022-11-29T16:03:05.124Z,6.81
2022-11-29T16:05:37.732Z,6.79
2022-11-29T16:08:18.817Z,6.79
2022-11-29T16:10:50.359Z,6.78
2022-11-29T16:13:32.537Z,6.78
2022-11-29T16:16:07.517Z,6.76
2022-11-29T16:18:34.366Z,6.75
2022-11-29T16:21:06.008Z,6.77
2022-11-29T16:23:36.980Z,6.76
2022-11-29T16:26:12.553Z,6.77
2022-11-29T16:28:44.744Z,6.76
2022-11-29T16:31:31.691Z,6.73
2022-11-29T16:34:07.285Z,6.73
2022-11-29T16:36:33.866Z,6.70
2022-11-29T16:39:16.950Z,6.70
2022-11-29T16:41:43.971Z,6.66
2022-11-29T16:44:39.753Z,6.63
2022-11-29T16:47:18.917Z,6.57
2022-11-29T16:49:45.775Z,6.50
2022-11-29T16:52:38.638Z,6.48
2022-11-29T16:55:05.417Z,6.44
2022-11-29T16:57:32.233Z,6.40
2022-11-29T16:59:58.764Z,6.41
2022-11-29T17:02:29.448Z,6.43
2022-11-29T17:04:57.075Z,6.43
2022-11-29T17:07:28.815Z,6.37
2022-11-29T17:09:56.385Z,6.33
2022-11-29T17:12:22.964Z,6.27
2022-11-29T17:14:49.622Z,6.17
2022-11-29T17:17:18.235Z,6.05
2022-11-29T17:19:45.164Z,5.89
2022-11-29T17:22:12.180Z,5.77
2022-11-29T17:24:43.390Z,5.70
2022-11-29T17:27:13.036Z,5.66
2022-11-29T17:29:39.562Z,5.56
2022-11-29T17:32:06.161Z,5.49
2022-11-29T17:34:33.441Z,5.42
2022-11-29T17:36:59.972Z,5.33
2022-11-29T17:39:26.547Z,5.26
2022-11-29T17:41:53.065Z,5.15
2022-11-29T17:44:19.640Z,5.10
2022-11-29T17:46:46.247Z,4.98
2022-11-29T17:49:12.840Z,4.90
2022-11-29T17:51:51.753Z,4.87
2022-11-29T17:54:19.633Z,4.82
2022-11-29T17:56:46.160Z,4.83
2022-11-29T17:59:12.689Z,4.87
2022-11-29T18:01:39.414Z,4.93
2022-11-29T18:04:06.623Z,5.06
2022-11-29T18:06:38.329Z,5.19
2022-11-29T18:09:06.869Z,5.26
2022-11-29T18:11:49.043Z,5.32
2022-11-29T18:14:19.805Z,5.34
2022-11-29T18:16:46.593Z,5.38
2022-11-29T18:19:16.277Z,5.39
2022-11-29T18:21:43.333Z,5.34
2022-11-29T18:24:10.350Z,5.31
2022-11-29T18:26:38.133Z,5.28
2022-11-29T18:29:05.926Z,5.29
2022-11-29T18:31:35.039Z,5.33
2022-11-29T18:34:07.021Z,5.36
2022-11-29T18:36:36.244Z,5.40
2022-11-29T18:39:06.166Z,5.43
2022-11-29T18:41:33.340Z,5.48
2022-11-29T18:44:07.576Z,5.58
2022-11-29T18:46:37.261Z,5.68
2022-11-29T18:49:08.018Z,5.72
2022-11-29T18:51:35.976Z,5.78
2022-11-29T18:54:03.354Z,5.82
2022-11-29T18:56:32.739Z,5.85
2022-11-29T18:59:03.430Z,5.88
2022-11-29T19:01:33.357Z,5.91
2022-11-29T19:04:01.489Z,5.91
2022-11-29T19:06:37.128Z,5.92
2022-11-29T19:09:06.394Z,5.93
2022-11-29T19:11:34.543Z,5.98
2022-11-29T19:14:04.025Z,6.00
2022-11-29T19:16:33.454Z,5.97
2022-11-29T19:19:01.319Z,5.97
2022-11-29T19:21:29.924Z,5.98
2022-11-29T19:23:58.856Z,5.97
2022-11-29T19:26:27.507Z,5.96
2022-11-29T19:28:54.499Z,5.96
2022-11-29T19:31:25.082Z,5.96
2022-11-29T19:33:52.834Z,5.97
2022-11-29T19:36:30.539Z,5.95
2022-11-29T19:38:59.745Z,5.95
2022-11-29T19:41:28.960Z,5.94
2022-11-29T19:43:57.759Z,5.97
2022-11-29T19:46:27.210Z,5.97
2022-11-29T19:48:55.550Z,5.98
2022-11-29T19:51:23.327Z,6.01
2022-11-29T19:53:54.831Z,6.02
2022-11-29T19:56:22.452Z,6.03
2022-11-29T19:58:49.872Z,6.02
2022-11-29T20:01:24.046Z,6.04
2022-11-29T20:03:52.165Z,6.04
2022-11-29T20:06:19.362Z,6.05
2022-11-29T20:08:46.131Z,6.04
2022-11-29T20:11:16.764Z,6.05
2022-11-29T20:13:45.355Z,6.06
2022-11-29T20:16:14.805Z,6.06
2022-11-29T20:18:47.252Z,6.05
2022-11-29T20:21:22.450Z,6.10
2022-11-29T20:23:49.359Z,6.11
2022-11-29T20:26:20.792Z,6.13
2022-11-29T20:28:47.780Z,6.15
2022-11-29T20:31:17.731Z,6.16
2022-11-29T20:33:46.165Z,6.17
2022-11-29T20:36:48.038Z,6.17
2022-11-29T20:39:28.996Z,6.21
2022-11-29T20:42:12.724Z,6.23
2022-11-29T20:44:55.164Z,6.22
2022-11-29T20:47:24.741Z,6.23
2022-11-29T20:49:51.933Z,6.25
2022-11-29T20:52:35.109Z,6.26
2022-11-29T20:55:01.855Z,6.26
2022-11-29T20:57:28.642Z,6.25
2022-11-29T20:59:55.424Z,6.27
2022-11-29T21:02:23.149Z,6.25
2022-11-29T21:04:49.693Z,6.25
2022-11-29T21:07:16.606Z,6.28
2022-11-29T21:09:43.194Z,6.28
2022-11-29T21:12:10.363Z,6.29
2022-11-29T21:14:37.341Z,6.29
2022-11-29T21:17:04.360Z,6.29
2022-11-29T21:19:31.186Z,6.30
2022-11-29T21:22:35.623Z,6.33
2022-11-29T21:25:26.672Z,6.30
2022-11-29T21:27:55.012Z,6.32
2022-11-29T21:30:23.836Z,6.33
2022-11-29T21:32:51.254Z,6.31
2022-11-29T21:35:18.415Z,6.31
2022-11-29T21:37:45.732Z,6.29
2022-11-29T21:40:13.968Z,6.29
2022-11-29T21:42:40.658Z,6.27
2022-11-29T21:45:13.451Z,6.27
2022-11-29T21:47:42.400Z,6.27
2022-11-29T21:50:09.434Z,6.28
2022-11-29T21:52:36.016Z,6.29
2022-11-29T21:55:02.606Z,6.31
2022-11-29T21:57:29.147Z,6.31
2022-11-29T21:59:55.680Z,6.30
2022-11-29T22:02:22.510Z,6.32
2022-11-29T22:04:49.253Z,6.32
2022-11-29T22:07:16.176Z,6.32
2022-11-29T22:09:42.790Z,6.31
2022-11-29T22:12:31.837Z,6.31
2022-11-29T22:14:55.810Z,6.31
2022-11-29T22:17:22.307Z,6.31
2022-11-29T22:19:48.864Z,6.30
2022-11-29T22:22:15.431Z,6.32
2022-11-29T22:24:41.918Z,6.32
2022-11-29T22:27:08.476Z,6.33
2022-11-29T22:29:34.973Z,6.34
2022-11-29T22:32:02.339Z,6.35
2022-11-29T22:34:29.003Z,6.35
2022-11-29T22:36:56.049Z,6.37
2022-11-29T22:39:23.135Z,6.37
2022-11-29T22:41:54.301Z,6.39
2022-11-29T22:44:22.030Z,6.39
2022-11-29T22:46:48.734Z,6.41
2022-11-29T22:49:15.451Z,6.43
2022-11-29T22:51:42.173Z,6.43
2022-11-29T22:54:11.392Z,6.43
2022-11-29T22:56:40.361Z,6.44
2022-11-29T22:59:07.230Z,6.42
2022-11-29T23:01:35.627Z,6.43
2022-11-29T23:04:04.251Z,6.41
2022-11-29T23:06:37.502Z,6.40
2022-11-29T23:09:22.457Z,6.40
2022-11-29T23:11:53.932Z,6.37
2022-11-29T23:14:22.117Z,6.38
2022-11-29T23:16:48.863Z,6.39
2022-11-29T23:19:16.144Z,6.37
2022-11-29T23:21:45.572Z,6.36
2022-11-29T23:24:13.286Z,6.34
2022-11-29T23:26:42.485Z,6.33
2022-11-29T23:29:13.001Z,6.32
2022-11-29T23:31:40.011Z,6.32
2022-11-29T23:34:06.619Z,6.28
2022-11-29T23:36:33.676Z,6.29
2022-11-29T23:39:00.560Z,6.28
2022-11-29T23:41:27.147Z,6.26
2022-11-29T23:43:53.684Z,6.24
2022-11-29T23:46:23.355Z,6.23
2022-11-29T23:48:50.402Z,6.20
2022-11-29T23:51:18.226Z,6.18
2022-11-29T23:53:46.714Z,6.17
2022-11-29T23:56:16.174Z,6.14
2022-11-29T23:58:43.798Z,6.14
